Time;durP1;ratioP1;P1;durP2;ratioP2;P2;SDS_P1;SDS_P2;PMS_P1;PMS_P2;Temp;Humidity;BMP_temperature;BMP_pressure;BME280_temperature;BME280_humidity;BME280_pressure;Samples;Min_cycle;Max_cycle;Signal;HPM_P1;HPM_P2
2024/04/14 00:00:13;;;;;;;12.32;5.68;;;23.70;59.30;;;;;;5336252;26;20009;-69
2024/04/14 00:02:59;;;;;;;12.32;6.75;;;23.70;59.40;;;;;;5340211;26;20013;-68
2024/04/14 00:05:46;;;;;;;8.77;5.20;;;23.70;60.30;;;;;;5338716;26;20004;-68
2024/04/14 00:08:32;;;;;;;14.85;6.57;;;23.70;60.30;;;;;;5337025;26;20017;-65
2024/04/14 00:11:18;;;;;;;10.50;5.70;;;23.70;60.10;;;;;;5337491;26;20009;-69
2024/04/14 00:14:05;;;;;;;18.55;9.57;;;23.70;60.10;;;;;;5338230;26;20004;-68
2024/04/14 00:16:52;;;;;;;17.13;9.95;;;23.70;60.20;;;;;;5335700;26;20008;-69
2024/04/14 00:19:38;;;;;;;19.40;8.38;;;23.80;60.30;;;;;;5338099;26;20019;-69
2024/04/14 00:22:24;;;;;;;13.00;9.05;;;23.80;60.30;;;;;;5336596;26;20017;-68
2024/04/14 00:25:11;;;;;;;21.15;9.85;;;23.80;60.40;;;;;;5336033;26;20314;-67
2024/04/14 00:27:58;;;;;;;22.40;10.80;;;23.80;60.40;;;;;;5336046;26;20044;-66
2024/04/14 00:30:44;;;;;;;16.98;9.38;;;23.80;60.30;;;;;;5337609;26;20076;-66
2024/04/14 00:33:31;;;;;;;18.73;10.95;;;23.80;60.30;;;;;;5336570;26;20330;-68
2024/04/14 00:36:17;;;;;;;17.35;9.15;;;23.80;60.30;;;;;;5335697;26;20334;-67
2024/04/14 00:39:03;;;;;;;20.83;10.57;;;23.80;60.20;;;;;;5338807;26;20322;-68
2024/04/14 00:41:49;;;;;;;17.15;8.93;;;23.80;60.20;;;;;;5334857;26;20033;-68
2024/04/14 00:44:36;;;;;;;17.65;8.30;;;23.80;60.20;;;;;;5338122;26;20017;-68
2024/04/14 00:47:22;;;;;;;15.68;8.63;;;23.80;60.30;;;;;;5312472;26;20004;-67
2024/04/14 00:50:08;;;;;;;16.08;7.88;;;23.70;60.20;;;;;;5335943;26;20327;-68
2024/04/14 00:52:55;;;;;;;16.73;8.90;;;23.80;60.20;;;;;;5336064;26;20053;-68
2024/04/14 00:55:42;;;;;;;17.33;9.20;;;23.70;60.20;;;;;;5336951;26;20005;-68
2024/04/14 00:58:29;;;;;;;14.30;7.50;;;23.70;60.20;;;;;;5338196;26;20405;-67
2024/04/14 01:01:16;;;;;;;19.77;7.93;;;23.70;60.20;;;;;;5336806;26;20693;-69
2024/04/14 01:04:03;;;;;;;17.33;7.55;;;23.70;60.20;;;;;;5339859;26;20015;-68
2024/04/14 01:06:49;;;;;;;13.00;6.22;;;23.70;60.20;;;;;;5334862;26;20036;-68
2024/04/14 01:09:35;;;;;;;15.13;6.68;;;23.70;60.20;;;;;;5338597;26;20459;-68
2024/04/14 01:12:21;;;;;;;12.90;6.88;;;23.70;60.30;;;;;;5336247;26;20021;-68
2024/04/14 01:15:07;;;;;;;14.30;7.50;;;23.70;60.30;;;;;;5336803;26;20016;-68
2024/04/14 01:17:53;;;;;;;10.27;5.18;;;23.70;60.30;;;;;;5337664;26;20001;-67
2024/04/14 01:20:40;;;;;;;14.15;6.35;;;23.70;60.40;;;;;;5311741;26;20044;-69
2024/04/14 01:23:26;;;;;;;13.13;5.53;;;23.70;60.40;;;;;;5336295;26;20083;-69
2024/04/14 01:26:12;;;;;;;8.63;5.22;;;23.70;60.50;;;;;;5336991;26;20009;-66
2024/04/14 01:28:58;;;;;;;13.35;7.55;;;23.70;60.40;;;;;;5337614;26;20019;-68
2024/04/14 01:31:44;;;;;;;28.95;14.25;;;23.60;60.40;;;;;;5336849;26;20426;-68
2024/04/14 01:34:30;;;;;;;28.05;14.07;;;23.60;60.20;;;;;;5338173;26;20016;-69
2024/04/14 01:37:16;;;;;;;27.20;12.48;;;23.60;60.00;;;;;;5333558;26;20005;-68
2024/04/14 01:40:03;;;;;;;24.65;10.23;;;23.50;60.10;;;;;;5336169;26;20019;-68
2024/04/14 01:42:49;;;;;;;21.60;10.35;;;23.50;60.20;;;;;;5310968;26;20064;-68
2024/04/14 01:45:35;;;;;;;19.55;9.25;;;23.50;60.20;;;;;;5339268;26;20005;-68
2024/04/14 01:48:21;;;;;;;18.60;9.43;;;23.50;60.30;;;;;;5336301;26;20524;-68
2024/04/14 01:51:20;;;;;;;17.55;9.13;;;23.50;60.30;;;;;;5335945;26;20422;-69
2024/04/14 01:54:06;;;;;;;21.75;8.68;;;23.50;60.40;;;;;;5340934;26;20079;-69
2024/04/14 01:56:52;;;;;;;19.40;8.60;;;23.50;60.40;;;;;;5338666;26;20005;-68
2024/04/14 01:59:38;;;;;;;16.33;8.00;;;23.40;60.30;;;;;;5342485;26;20080;-68
2024/04/14 02:02:25;;;;;;;15.57;8.55;;;23.50;60.40;;;;;;5340894;26;20019;-69
2024/04/14 02:05:11;;;;;;;16.70;8.27;;;23.40;60.30;;;;;;5338209;26;20009;-69
2024/04/14 02:07:56;;;;;;;16.92;7.68;;;23.40;60.30;;;;;;5340728;26;20009;-69
2024/04/14 02:10:43;;;;;;;20.70;8.93;;;23.40;60.40;;;;;;5340625;26;20001;-69
2024/04/14 02:13:29;;;;;;;13.60;7.82;;;23.40;60.30;;;;;;5337564;26;20413;-69
2024/04/14 02:16:15;;;;;;;15.75;8.30;;;23.40;60.30;;;;;;5337829;26;20009;-67
2024/04/14 02:19:01;;;;;;;15.15;7.95;;;23.40;60.30;;;;;;5340235;26;20008;-68
2024/04/14 02:21:47;;;;;;;15.68;7.80;;;23.40;60.30;;;;;;5338155;26;20005;-69
2024/04/14 02:24:33;;;;;;;19.10;9.25;;;23.40;60.30;;;;;;5327998;26;20017;-68
2024/04/14 02:27:19;;;;;;;18.05;8.20;;;23.40;60.30;;;;;;5335207;26;20005;-69
2024/04/14 02:30:05;;;;;;;14.38;6.72;;;23.40;60.30;;;;;;5341973;26;20005;-68
2024/04/14 02:32:51;;;;;;;16.13;7.80;;;23.40;60.30;;;;;;5341702;26;20008;-68
2024/04/14 02:35:40;;;;;;;14.57;7.22;;;23.40;60.30;;;;;;5338557;26;20001;-68
2024/04/14 02:38:27;;;;;;;13.50;7.90;;;23.40;60.40;;;;;;5341720;26;20019;-68
2024/04/14 02:41:13;;;;;;;13.30;7.25;;;23.40;60.30;;;;;;5336798;26;20024;-68
2024/04/14 02:43:59;;;;;;;15.98;8.05;;;23.40;60.30;;;;;;5338969;26;20037;-68
2024/04/14 02:46:45;;;;;;;16.10;7.53;;;23.40;60.30;;;;;;5337914;26;20034;-68
2024/04/14 02:49:31;;;;;;;13.98;6.95;;;23.40;60.30;;;;;;5340073;26;20020;-68
2024/04/14 02:52:17;;;;;;;16.27;7.32;;;23.40;60.20;;;;;;5338292;26;20023;-67
2024/04/14 02:55:04;;;;;;;15.13;7.05;;;23.40;60.30;;;;;;5339165;26;20016;-68
2024/04/14 02:57:50;;;;;;;13.98;7.00;;;23.40;60.30;;;;;;5339456;26;20601;-68
2024/04/14 03:00:36;;;;;;;15.07;6.45;;;23.40;60.20;;;;;;5340270;26;20476;-68
2024/04/14 03:03:22;;;;;;;14.02;7.03;;;23.30;60.20;;;;;;5340071;26;20001;-69
2024/04/14 03:06:08;;;;;;;13.73;6.53;;;23.30;60.20;;;;;;5339331;26;20489;-67
2024/04/14 03:08:54;;;;;;;12.07;6.72;;;23.30;60.20;;;;;;5337923;26;20421;-68
2024/04/14 03:11:40;;;;;;;14.27;6.05;;;23.30;60.20;;;;;;5338721;26;20605;-69
2024/04/14 03:14:26;;;;;;;11.88;6.93;;;23.30;60.20;;;;;;5338093;26;20076;-67
2024/04/14 03:17:12;;;;;;;16.35;6.78;;;23.30;60.20;;;;;;5337978;26;20079;-69
2024/04/14 03:19:58;;;;;;;16.48;6.72;;;23.30;60.20;;;;;;5340054;26;20077;-69
2024/04/14 03:22:44;;;;;;;13.73;6.13;;;23.30;60.20;;;;;;5339295;26;20342;-68
2024/04/14 03:25:30;;;;;;;11.50;5.35;;;23.30;60.20;;;;;;5339223;26;20019;-68
2024/04/14 03:28:16;;;;;;;9.15;5.32;;;23.30;60.20;;;;;;5338641;26;20009;-69
2024/04/14 03:31:02;;;;;;;18.80;6.30;;;23.30;60.20;;;;;;5337479;26;20040;-68
2024/04/14 03:33:49;;;;;;;12.93;5.70;;;23.30;60.20;;;;;;5339520;26;20019;-68
2024/04/14 03:36:35;;;;;;;11.98;5.63;;;23.30;60.20;;;;;;5338892;26;20683;-68
2024/04/14 03:39:21;;;;;;;7.60;4.50;;;23.30;60.20;;;;;;5340309;26;20009;-68
2024/04/14 03:42:07;;;;;;;9.38;5.60;;;23.30;60.20;;;;;;5336799;26;20141;-68
2024/04/14 03:44:53;;;;;;;10.38;4.68;;;23.30;60.20;;;;;;5339271;26;20154;-68
2024/04/14 03:47:39;;;;;;;9.57;5.03;;;23.30;60.20;;;;;;5337899;26;20411;-68
2024/04/14 03:50:25;;;;;;;12.98;6.15;;;23.20;60.10;;;;;;5338281;26;20075;-69
2024/04/14 03:53:11;;;;;;;13.35;5.47;;;23.30;60.20;;;;;;5339041;26;20016;-68
2024/04/14 03:55:57;;;;;;;11.50;5.18;;;23.30;60.20;;;;;;5313397;26;20025;-67
2024/04/14 03:58:43;;;;;;;9.85;4.35;;;23.20;60.10;;;;;;5339227;26;20009;-68
2024/04/14 04:01:29;;;;;;;9.13;4.95;;;23.20;60.10;;;;;;5336333;26;20032;-67
2024/04/14 04:04:15;;;;;;;6.15;4.43;;;23.20;60.10;;;;;;5337971;26;20020;-67
2024/04/14 04:07:01;;;;;;;11.70;4.90;;;23.20;60.10;;;;;;5335835;26;20008;-68
2024/04/14 04:09:49;;;;;;;7.90;4.88;;;23.20;60.20;;;;;;5339933;26;20004;-68
2024/04/14 04:12:35;;;;;;;7.88;4.18;;;23.20;60.10;;;;;;5338122;26;19997;-68
2024/04/14 04:15:21;;;;;;;6.97;3.45;;;23.20;60.10;;;;;;5336772;26;20019;-68
2024/04/14 04:18:07;;;;;;;10.73;4.40;;;23.20;60.10;;;;;;5337768;26;20005;-67
2024/04/14 04:20:59;;;;;;;8.55;4.43;;;23.20;60.10;;;;;;5339788;26;20021;-68
2024/04/14 04:23:45;;;;;;;7.88;3.65;;;23.20;60.20;;;;;;5336931;26;20005;-68
2024/04/14 04:26:31;;;;;;;5.68;3.60;;;23.20;60.20;;;;;;5336941;26;20677;-69
2024/04/14 04:29:17;;;;;;;7.00;3.75;;;23.20;60.10;;;;;;5336470;26;20009;-68
2024/04/14 04:32:03;;;;;;;6.30;3.05;;;23.20;60.10;;;;;;5337376;26;20023;-68
2024/04/14 04:34:49;;;;;;;4.88;3.13;;;23.20;60.10;;;;;;5337152;26;20420;-68
2024/04/14 04:37:35;;;;;;;8.82;3.22;;;23.20;60.10;;;;;;5336875;26;20080;-68
2024/04/14 04:40:21;;;;;;;6.43;2.83;;;23.20;60.10;;;;;;5339173;26;20416;-68
2024/04/14 04:43:07;;;;;;;7.00;3.55;;;23.20;60.10;;;;;;5334395;26;20012;-68
2024/04/14 04:45:53;;;;;;;7.78;3.60;;;23.20;60.10;;;;;;5338205;26;20084;-68
2024/04/14 04:48:39;;;;;;;4.93;3.03;;;23.10;60.00;;;;;;5338407;26;20076;-68
2024/04/14 04:51:27;;;;;;;8.82;3.30;;;23.20;60.10;;;;;;5335407;26;20015;-68
2024/04/14 04:54:13;;;;;;;7.53;3.67;;;23.20;60.10;;;;;;5337256;26;20009;-68
2024/04/14 04:56:59;;;;;;;7.20;2.83;;;23.10;60.00;;;;;;5338220;26;20016;-67
2024/04/14 04:59:46;;;;;;;10.43;3.50;;;23.10;60.00;;;;;;5311606;26;20019;-67
2024/04/14 05:02:32;;;;;;;5.47;3.38;;;23.20;60.10;;;;;;5333476;26;20117;-68
2024/04/14 05:05:18;;;;;;;6.22;3.13;;;23.10;60.00;;;;;;5334862;26;20533;-67
2024/04/14 05:08:04;;;;;;;4.70;2.65;;;23.10;60.10;;;;;;5334542;26;20032;-67
2024/04/14 05:10:55;;;;;;;3.55;2.50;;;23.10;60.00;;;;;;5336014;26;20614;-68
2024/04/14 05:13:41;;;;;;;4.65;2.65;;;23.10;60.00;;;;;;5334697;26;20001;-67
2024/04/14 05:16:27;;;;;;;5.70;2.35;;;23.10;60.00;;;;;;5335679;26;20005;-68
2024/04/14 05:19:13;;;;;;;4.35;2.38;;;23.10;60.00;;;;;;5335458;26;20039;-68
2024/04/14 05:21:59;;;;;;;4.18;2.10;;;23.10;60.00;;;;;;5335079;26;20105;-68
2024/04/14 05:24:45;;;;;;;5.10;2.65;;;23.10;60.00;;;;;;5336411;26;20005;-67
2024/04/14 05:27:31;;;;;;;3.22;2.33;;;23.10;60.10;;;;;;5311845;26;20099;-68
2024/04/14 05:30:18;;;;;;;7.25;2.67;;;23.10;60.10;;;;;;5337536;26;20037;-68
2024/04/14 05:33:04;;;;;;;4.68;2.30;;;23.10;60.10;;;;;;5338266;26;20024;-67
2024/04/14 05:35:54;;;;;;;5.72;2.75;;;23.10;60.10;;;;;;5338812;26;20008;-69
2024/04/14 05:38:41;;;;;;;3.20;1.92;;;23.10;60.10;;;;;;5341097;26;20064;-67
2024/04/14 05:41:27;;;;;;;5.45;2.22;;;23.10;60.10;;;;;;5340127;26;20059;-68
2024/04/14 05:44:13;;;;;;;4.93;2.35;;;23.10;60.10;;;;;;5339298;26;20472;-68
2024/04/14 05:46:59;;;;;;;4.07;2.40;;;23.10;60.20;;;;;;5342880;26;20038;-67
2024/04/14 05:49:45;;;;;;;3.25;1.92;;;23.10;60.20;;;;;;5339439;26;20005;-68
2024/04/14 05:52:31;;;;;;;3.42;1.85;;;23.10;61.00;;;;;;5339392;26;19997;-67
2024/04/14 05:55:17;;;;;;;3.50;2.38;;;23.00;60.10;;;;;;5339461;26;20015;-68
2024/04/14 05:58:03;;;;;;;4.15;2.03;;;23.10;60.20;;;;;;5338148;26;20076;-68
2024/04/14 06:00:49;;;;;;;3.97;1.77;;;23.00;60.20;;;;;;5340776;26;20001;-68
2024/04/14 06:03:35;;;;;;;2.65;1.45;;;23.00;60.20;;;;;;5341186;26;20080;-69
2024/04/14 06:06:21;;;;;;;3.08;1.63;;;23.00;60.20;;;;;;5339447;26;20013;-68
2024/04/14 06:09:07;;;;;;;1.63;1.20;;;23.00;60.20;;;;;;5340527;26;20009;-67
2024/04/14 06:11:54;;;;;;;3.70;1.92;;;23.00;60.10;;;;;;5340596;26;20016;-69
2024/04/14 06:14:40;;;;;;;4.40;1.80;;;23.00;60.10;;;;;;5339857;26;20446;-68
2024/04/14 06:17:26;;;;;;;2.78;1.55;;;23.00;60.20;;;;;;5339383;26;20005;-68
2024/04/14 06:20:12;;;;;;;1.85;1.65;;;23.00;60.20;;;;;;5338682;26;20083;-67
2024/04/14 06:22:58;;;;;;;5.15;2.10;;;23.00;60.20;;;;;;5340636;26;20303;-68
2024/04/14 06:25:45;;;;;;;1.30;1.20;;;23.00;60.20;;;;;;5339235;26;20001;-67
2024/04/14 06:28:33;;;;;;;3.55;1.67;;;23.00;60.10;;;;;;5340685;26;20016;-68
2024/04/14 06:31:20;;;;;;;4.10;1.40;;;23.00;60.10;;;;;;5338108;26;20410;-68
2024/04/14 06:34:06;;;;;;;3.90;1.45;;;23.00;60.10;;;;;;5341968;26;20056;-67
2024/04/14 06:36:52;;;;;;;3.63;1.95;;;23.00;60.10;;;;;;5342693;26;20005;-68
2024/04/14 06:39:38;;;;;;;3.33;1.40;;;22.90;60.10;;;;;;5337265;26;20415;-68
2024/04/14 06:42:24;;;;;;;2.42;1.40;;;23.00;60.20;;;;;;5336724;26;20009;-68
2024/04/14 06:45:11;;;;;;;3.28;1.67;;;22.90;60.10;;;;;;5339040;26;20020;-68
2024/04/14 06:47:57;;;;;;;3.67;1.80;;;22.90;60.10;;;;;;5338618;26;20041;-68
2024/04/14 06:50:43;;;;;;;4.15;1.80;;;23.00;60.20;;;;;;5339987;26;20298;-69
2024/04/14 06:53:29;;;;;;;2.45;1.58;;;22.90;60.10;;;;;;5338743;26;20009;-67
2024/04/14 06:56:15;;;;;;;2.58;1.88;;;22.90;60.90;;;;;;5338714;26;20569;-68
2024/04/14 06:59:01;;;;;;;6.10;1.23;;;22.90;60.10;;;;;;5341237;26;20001;-68
2024/04/14 07:01:47;;;;;;;2.35;1.40;;;22.90;60.10;;;;;;5339731;26;20009;-68
2024/04/14 07:04:33;;;;;;;4.25;2.08;;;22.90;60.00;;;;;;5337780;26;20014;-68
2024/04/14 07:07:20;;;;;;;2.63;1.63;;;22.90;60.00;;;;;;5338733;26;20671;-68
2024/04/14 07:10:06;;;;;;;3.47;1.65;;;22.90;60.00;;;;;;5337911;26;20005;-67
2024/04/14 07:12:52;;;;;;;4.25;1.45;;;22.90;60.00;;;;;;5338847;26;20013;-67
2024/04/14 07:15:38;;;;;;;2.03;1.80;;;22.90;60.00;;;;;;5337812;26;20008;-68
2024/04/14 07:18:24;;;;;;;2.17;1.60;;;22.90;60.00;;;;;;5361392;26;20017;-67
2024/04/14 07:21:10;;;;;;;2.72;1.88;;;22.90;60.00;;;;;;5338333;26;20016;-68
2024/04/14 07:23:56;;;;;;;3.83;1.85;;;22.90;60.00;;;;;;5340051;26;20020;-67
2024/04/14 07:26:42;;;;;;;2.25;1.70;;;22.90;60.00;;;;;;5339180;26;20019;-69
2024/04/14 07:29:28;;;;;;;1.85;1.38;;;22.90;60.00;;;;;;5362470;26;20004;-68
2024/04/14 07:32:15;;;;;;;2.15;1.33;;;22.90;60.00;;;;;;5338203;26;20017;-68
2024/04/14 07:35:01;;;;;;;3.35;1.70;;;22.90;60.00;;;;;;5338384;26;20024;-67
2024/04/14 07:37:47;;;;;;;2.33;1.60;;;22.90;60.00;;;;;;5338848;26;20045;-68
2024/04/14 07:40:33;;;;;;;4.55;1.63;;;22.90;60.00;;;;;;5327331;26;20000;-68
2024/04/14 07:43:19;;;;;;;5.30;1.75;;;22.90;60.00;;;;;;5338291;26;20397;-67
2024/04/14 07:46:05;;;;;;;2.03;1.10;;;22.90;60.00;;;;;;5338321;26;20064;-68
2024/04/14 07:48:52;;;;;;;2.15;1.35;;;22.90;59.90;;;;;;5339381;26;20634;-68
2024/04/14 07:51:38;;;;;;;2.08;1.42;;;22.90;59.90;;;;;;5338410;26;20342;-68
2024/04/14 07:54:24;;;;;;;1.63;1.40;;;22.90;59.90;;;;;;5338335;26;20005;-68
2024/04/14 07:57:10;;;;;;;1.58;1.25;;;22.90;59.90;;;;;;5336581;26;20031;-67
2024/04/14 07:59:56;;;;;;;2.78;1.20;;;22.90;59.90;;;;;;5337084;26;20558;-67
2024/04/14 08:02:43;;;;;;;2.10;1.08;;;22.90;59.90;;;;;;5339330;26;20005;-68
2024/04/14 08:05:29;;;;;;;1.50;1.17;;;22.90;59.90;;;;;;5336779;26;20044;-68
2024/04/14 08:08:15;;;;;;;1.70;1.33;;;22.90;59.90;;;;;;5337925;26;20085;-67
2024/04/14 08:11:01;;;;;;;1.77;1.33;;;22.90;59.90;;;;;;5340028;26;20075;-69
2024/04/14 08:13:47;;;;;;;1.48;1.05;;;22.90;59.90;;;;;;5303193;27;20419;-67
2024/04/14 08:16:33;;;;;;;1.95;1.13;;;22.90;59.90;;;;;;5304838;26;20398;-68
2024/04/14 08:19:19;;;;;;;1.20;0.82;;;22.90;59.80;;;;;;5300010;27;20010;-69
2024/04/14 08:22:05;;;;;;;2.25;0.95;;;22.90;59.90;;;;;;5303396;26;20005;-68
2024/04/14 08:24:51;;;;;;;1.90;1.20;;;22.90;59.90;;;;;;5302492;27;20619;-69
2024/04/14 08:27:37;;;;;;;4.38;1.88;;;22.90;59.80;;;;;;5302863;27;20014;-67
2024/04/14 08:30:23;;;;;;;1.00;0.90;;;23.00;59.60;;;;;;5300758;27;20002;-68
2024/04/14 08:33:09;;;;;;;1.30;1.20;;;23.00;59.60;;;;;;5301096;27;20015;-68
2024/04/14 08:35:55;;;;;;;2.22;1.08;;;23.00;59.60;;;;;;5302852;27;20068;-68
2024/04/14 08:38:41;;;;;;;1.92;1.00;;;23.00;59.60;;;;;;5307145;27;20009;-68
2024/04/14 08:41:30;;;;;;;2.80;1.00;;;23.00;59.70;;;;;;5302768;27;20017;-69
2024/04/14 08:44:17;;;;;;;1.33;1.17;;;23.00;59.70;;;;;;5301309;27;20496;-66
2024/04/14 08:47:04;;;;;;;2.47;1.40;;;23.00;59.70;;;;;;5302558;27;20009;-68
2024/04/14 08:49:52;;;;;;;2.35;1.13;;;23.00;59.80;;;;;;5302119;27;20005;-68
2024/04/14 08:52:41;;;;;;;1.50;1.10;;;23.00;59.90;;;;;;5303682;26;20068;-69
2024/04/14 08:55:27;;;;;;;2.80;1.20;;;23.00;59.90;;;;;;5277399;27;20005;-68
2024/04/14 08:58:15;;;;;;;1.40;1.02;;;23.00;59.90;;;;;;5300085;27;20001;-70
2024/04/14 09:01:02;;;;;;;4.07;1.77;;;23.00;59.80;;;;;;5304443;26;20318;-69
2024/04/14 09:03:48;;;;;;;5.57;2.30;;;22.90;60.00;;;;;;5303374;27;20020;-74
2024/04/14 09:06:35;;;;;;;5.78;2.38;;;22.90;59.10;;;;;;5304375;26;20018;-73
2024/04/14 09:09:21;;;;;;;5.70;2.20;;;22.90;58.00;;;;;;5301401;27;20051;-75
2024/04/14 09:12:11;;;;;;;4.75;2.03;;;22.90;57.80;;;;;;5300450;27;20127;-71
2024/04/14 09:14:57;;;;;;;6.40;1.83;;;22.90;57.80;;;;;;5302792;27;20018;-73
2024/04/14 09:17:43;;;;;;;8.88;3.05;;;22.90;57.60;;;;;;5304234;26;20484;-75
2024/04/14 09:20:29;;;;;;;8.20;3.20;;;22.90;57.40;;;;;;5304115;26;20005;-73
2024/04/14 09:23:15;;;;;;;18.10;3.00;;;22.90;57.70;;;;;;5301611;27;20002;-72
2024/04/14 09:26:04;;;;;;;5.38;3.00;;;22.90;57.10;;;;;;5302937;27;20621;-73
2024/04/14 09:29:06;;;;;;;5.90;3.30;;;22.90;57.20;;;;;;5303934;27;20014;-71
2024/04/14 09:31:53;;;;;;;5.22;2.55;;;22.90;57.20;;;;;;5302406;27;20001;-73
2024/04/14 09:34:39;;;;;;;6.15;2.67;;;22.90;57.40;;;;;;5302199;27;20009;-76
2024/04/14 09:37:26;;;;;;;8.52;3.10;;;22.80;57.40;;;;;;5301756;26;20002;-72
2024/04/14 09:40:12;;;;;;;12.82;3.38;;;22.90;57.60;;;;;;5300897;27;20009;-72
2024/04/14 09:42:59;;;;;;;6.18;3.78;;;22.80;57.40;;;;;;5304819;26;20017;-72
2024/04/14 09:45:47;;;;;;;9.40;3.33;;;22.80;57.50;;;;;;5302363;27;20057;-73
2024/04/14 09:48:34;;;;;;;5.88;2.67;;;22.80;57.40;;;;;;5304039;26;20081;-73
2024/04/14 09:51:21;;;;;;;10.23;3.35;;;22.80;57.50;;;;;;5300213;27;20130;-73
2024/04/14 09:54:14;;;;;;;14.25;4.25;;;22.80;57.50;;;;;;5302330;26;20009;-73
2024/04/14 09:57:00;;;;;;;7.28;2.97;;;22.80;57.60;;;;;;5302186;27;20017;-73
2024/04/14 09:59:46;;;;;;;5.88;2.80;;;22.80;57.50;;;;;;5302778;27;20010;-72
2024/04/14 10:02:35;;;;;;;7.05;2.90;;;22.80;57.50;;;;;;5303099;26;20386;-72
2024/04/14 10:05:24;;;;;;;12.95;4.25;;;22.80;57.50;;;;;;5300074;27;20005;-72
2024/04/14 10:08:10;;;;;;;17.55;5.35;;;22.80;57.40;;;;;;5299902;27;20005;-72
2024/04/14 10:10:56;;;;;;;14.05;2.88;;;22.80;57.30;;;;;;5303355;26;20020;-72
2024/04/14 10:13:55;;;;;;;8.38;3.92;;;22.80;57.40;;;;;;5303685;26;20672;-74
2024/04/14 10:16:55;;;;;;;9.63;3.85;;;22.80;57.40;;;;;;5306443;26;20479;-72
2024/04/14 10:20:22;;;;;;;11.90;3.22;;;22.80;57.50;;;;;;5304810;27;20009;-73
2024/04/14 10:23:08;;;;;;;4.88;3.05;;;22.80;57.60;;;;;;5277196;27;20019;-70
2024/04/14 10:25:54;;;;;;;7.15;2.85;;;22.70;57.60;;;;;;5306307;26;20080;-72
2024/04/14 10:28:53;;;;;;;7.20;3.28;;;22.70;57.70;;;;;;5305113;27;20664;-74
2024/04/14 10:31:40;;;;;;;4.38;2.53;;;22.80;57.70;;;;;;5304962;26;20014;-70
2024/04/14 10:34:30;;;;;;;5.70;2.67;;;22.70;57.50;;;;;;5278631;27;20037;-71
2024/04/14 10:37:23;;;;;;;;;;;22.70;57.40;;;;;;5305789;26;20002;-70
2024/04/14 10:40:12;;;;;;;5.32;2.08;;;22.70;57.20;;;;;;5302509;27;19926;-71
2024/04/14 10:42:59;;;;;;;4.65;2.17;;;22.70;57.40;;;;;;5304357;27;20010;-73
2024/04/14 10:45:45;;;;;;;5.72;2.13;;;22.70;57.40;;;;;;5304235;27;20045;-74
2024/04/14 10:48:33;;;;;;;4.07;2.22;;;22.60;57.40;;;;;;5307138;26;20006;-73
2024/04/14 10:51:19;;;;;;;3.92;2.35;;;22.70;57.10;;;;;;5305099;26;20006;-70
2024/04/14 10:54:05;;;;;;;7.00;2.42;;;22.70;56.80;;;;;;5305046;26;20445;-75
2024/04/14 10:56:54;;;;;;;9.13;2.58;;;22.70;56.50;;;;;;5300547;27;20005;-72
2024/04/14 10:59:40;;;;;;;5.13;1.63;;;22.70;56.00;;;;;;5304761;27;20010;-73
2024/04/14 11:02:27;;;;;;;8.15;1.40;;;22.70;56.30;;;;;;5302287;27;20038;-73
2024/04/14 11:05:13;;;;;;;2.60;1.20;;;22.70;56.10;;;;;;5305839;26;20138;-72
2024/04/14 11:08:00;;;;;;;4.32;1.95;;;22.70;55.50;;;;;;5306389;26;20005;-73
2024/04/14 11:10:47;;;;;;;4.78;1.63;;;22.70;55.40;;;;;;5302327;27;20006;-72
2024/04/14 11:13:34;;;;;;;5.60;1.38;;;22.60;55.40;;;;;;5305426;27;20080;-69
2024/04/14 11:16:20;;;;;;;6.93;1.65;;;22.60;55.60;;;;;;5301534;27;20020;-72
2024/04/14 11:19:06;;;;;;;3.47;1.48;;;22.60;55.70;;;;;;5304021;27;20010;-71
2024/04/14 11:21:52;;;;;;;3.33;1.17;;;22.60;55.50;;;;;;5304205;27;20494;-72
2024/04/14 11:24:38;;;;;;;4.68;1.35;;;22.60;55.80;;;;;;5304535;26;20017;-72
2024/04/14 11:27:24;;;;;;;5.70;1.40;;;22.60;55.80;;;;;;5304720;26;20010;-70
2024/04/14 11:30:10;;;;;;;6.28;1.38;;;22.60;55.40;;;;;;5305151;26;20006;-71
2024/04/14 11:33:02;;;;;;;8.82;1.38;;;22.60;55.40;;;;;;5279558;27;20069;-71
2024/04/14 11:35:56;;;;;;;5.65;1.30;;;22.60;55.10;;;;;;5306019;26;20013;-71
2024/04/14 11:38:42;;;;;;;2.47;0.65;;;22.60;54.90;;;;;;5305115;27;20006;-73
2024/04/14 11:41:28;;;;;;;3.50;0.95;;;22.50;55.30;;;;;;5304179;26;20024;-70
2024/04/14 11:44:15;;;;;;;3.03;1.05;;;22.50;55.70;;;;;;5305372;26;20079;-71
2024/04/14 11:47:01;;;;;;;6.53;1.25;;;22.50;56.10;;;;;;5302814;27;20013;-72
2024/04/14 11:49:47;;;;;;;2.03;0.82;;;22.60;56.10;;;;;;5303900;27;20050;-72
2024/04/14 11:52:33;;;;;;;4.70;1.08;;;22.60;55.80;;;;;;5303317;27;20025;-71
2024/04/14 11:55:19;;;;;;;8.73;1.40;;;22.60;55.70;;;;;;5302425;27;20020;-70
2024/04/14 11:58:05;;;;;;;5.97;1.08;;;22.60;55.50;;;;;;5302975;27;20675;-73
2024/04/14 12:00:51;;;;;;;6.45;1.10;;;22.50;55.30;;;;;;5305170;26;20486;-71
2024/04/14 12:03:37;;;;;;;10.98;1.75;;;22.50;55.40;;;;;;5303196;27;20005;-72
2024/04/14 12:06:23;;;;;;;5.05;0.93;;;22.50;55.40;;;;;;5303868;26;20002;-70
2024/04/14 12:09:09;;;;;;;3.03;1.02;;;22.50;55.50;;;;;;5304772;26;20002;-69
2024/04/14 12:11:55;;;;;;;5.50;1.58;;;22.50;55.70;;;;;;5277872;27;20532;-73
2024/04/14 12:14:46;;;;;;;6.05;1.30;;;22.40;55.70;;;;;;5279217;27;20017;-71
2024/04/14 12:17:32;;;;;;;4.90;0.70;;;22.50;55.70;;;;;;5304654;26;20026;-73
2024/04/14 12:20:19;;;;;;;8.02;1.13;;;22.40;55.60;;;;;;5303009;26;20005;-75
2024/04/14 12:23:05;;;;;;;8.20;1.67;;;22.50;55.50;;;;;;5303030;27;20064;-75
2024/04/14 12:25:51;;;;;;;6.85;1.20;;;22.40;55.50;;;;;;5299786;27;20013;-74
2024/04/14 12:28:37;;;;;;;6.10;1.33;;;22.40;55.30;;;;;;5303497;26;20005;-75
2024/04/14 12:31:23;;;;;;;12.90;1.17;;;22.40;55.40;;;;;;5300118;27;20001;-75
2024/04/14 12:34:09;;;;;;;9.07;2.00;;;22.40;55.60;;;;;;5299444;27;20025;-73
2024/04/14 12:36:55;;;;;;;13.07;2.17;;;22.40;56.00;;;;;;5301057;27;20021;-74
2024/04/14 12:39:41;;;;;;;8.50;3.17;;;22.40;56.00;;;;;;5304257;26;20080;-74
2024/04/14 12:42:27;;;;;;;14.38;2.70;;;22.40;56.10;;;;;;5303563;26;20005;-72
2024/04/14 12:45:13;;;;;;;7.38;2.22;;;22.40;55.60;;;;;;5301666;27;20040;-75
2024/04/14 12:48:00;;;;;;;8.13;1.92;;;22.40;55.40;;;;;;5300502;27;20775;-74
2024/04/14 12:50:50;;;;;;;6.30;1.75;;;22.40;54.90;;;;;;5301372;27;20009;-75
2024/04/14 12:53:36;;;;;;;5.32;1.23;;;22.40;54.60;;;;;;5303926;27;20020;-75
2024/04/14 12:56:22;;;;;;;5.75;1.73;;;22.40;54.30;;;;;;5276961;27;20006;-74
2024/04/14 12:59:09;;;;;;;5.55;1.50;;;22.40;54.30;;;;;;5302840;27;20005;-72
2024/04/14 13:01:55;;;;;;;9.18;1.70;;;22.40;54.60;;;;;;5302419;27;20017;-74
2024/04/14 13:04:43;;;;;;;3.90;1.15;;;22.40;54.30;;;;;;5305195;26;20588;-75
2024/04/14 13:07:29;;;;;;;7.95;1.42;;;22.40;53.90;;;;;;5303325;27;20024;-74
2024/04/14 13:10:16;;;;;;;8.93;1.25;;;22.30;53.30;;;;;;5277313;27;20002;-72
2024/04/14 13:13:02;;;;;;;9.50;1.30;;;22.30;53.10;;;;;;5302441;27;20037;-72
2024/04/14 13:15:48;;;;;;;8.25;1.77;;;22.30;52.90;;;;;;5302029;27;20037;-71
2024/04/14 13:18:35;;;;;;;6.20;1.38;;;22.30;52.70;;;;;;5304752;26;20006;-75
2024/04/14 13:21:21;;;;;;;8.70;1.67;;;22.30;52.80;;;;;;5274561;27;20006;-74
2024/04/14 13:24:07;;;;;;;13.65;1.58;;;22.30;52.50;;;;;;5300503;27;20010;-72
2024/04/14 13:26:53;;;;;;;12.30;1.55;;;22.30;52.20;;;;;;5302785;26;20006;-71
2024/04/14 13:29:39;;;;;;;6.50;1.40;;;22.20;52.00;;;;;;5300975;27;20050;-71
2024/04/14 13:32:25;;;;;;;8.82;1.80;;;22.20;52.70;;;;;;5302612;26;20010;-72
2024/04/14 13:35:11;;;;;;;4.07;1.40;;;22.20;52.10;;;;;;5300844;27;20323;-72
2024/04/14 13:37:57;;;;;;;5.20;1.35;;;22.20;52.00;;;;;;5302761;27;20005;-66
2024/04/14 13:40:43;;;;;;;10.23;2.28;;;22.20;51.80;;;;;;5300702;27;20006;-68
2024/04/14 13:43:29;;;;;;;13.93;1.95;;;22.20;53.00;;;;;;5303759;26;20013;-73
2024/04/14 13:46:15;;;;;;;8.40;2.00;;;22.20;53.90;;;;;;5299478;27;20308;-72
2024/04/14 13:49:01;;;;;;;9.20;3.03;;;22.20;54.10;;;;;;5303898;27;20013;-69
2024/04/14 13:51:47;;;;;;;11.07;2.92;;;22.30;54.20;;;;;;5304285;27;20053;-69
2024/04/14 13:54:34;;;;;;;8.10;2.17;;;22.30;54.50;;;;;;5303854;27;20013;-69
2024/04/14 13:57:20;;;;;;;7.57;2.58;;;22.40;54.60;;;;;;5303975;26;20009;-69
2024/04/14 14:00:07;;;;;;;5.40;2.80;;;22.40;54.50;;;;;;5303639;27;20138;-69
2024/04/14 14:02:53;;;;;;;9.75;3.65;;;22.40;54.50;;;;;;5303243;27;20568;-69
2024/04/14 14:05:39;;;;;;;7.05;3.33;;;22.40;54.50;;;;;;5303502;27;20560;-68
2024/04/14 14:08:26;;;;;;;7.22;3.05;;;22.50;54.50;;;;;;5305062;26;20001;-69
2024/04/14 14:11:13;;;;;;;9.15;2.70;;;22.40;54.90;;;;;;5302349;27;20325;-69
2024/04/14 14:13:59;;;;;;;8.43;2.80;;;22.50;54.00;;;;;;5280622;27;20431;-69
2024/04/14 14:16:45;;;;;;;6.32;3.20;;;22.50;54.60;;;;;;5304250;26;20042;-69
2024/04/14 14:19:31;;;;;;;9.65;2.83;;;22.50;54.00;;;;;;5306524;26;20014;-69
2024/04/14 14:22:17;;;;;;;4.15;2.35;;;22.50;54.00;;;;;;5278115;27;20084;-69